This is the latest recevied weather packets stored in our database for station/object DM1HF-13. If no packets are shown the sender has not sent any weather packets the latest 10 day(s).
| Time | Temp. | Humidity | Pressure | Rain* | Wind** | Luminosity | Snow |
|---|---|---|---|---|---|---|---|
| 1777470017 | 15.56° C | 25% | 1030.2 hPa | 0 mm | - | 530 W/m² | - |
| 1777469717 | 16.11° C | 25% | 1030.3 hPa | 0 mm | - | 544 W/m² | - |
| 1777469417 | 15.56° C | 26% | 1030.2 hPa | 0 mm | - | 559 W/m² | - |
| 1777469117 | 15° C | 28% | 1030.3 hPa | 0 mm | - | 562 W/m² | - |
| 1777468817 | 14.44° C | 27% | 1030.2 hPa | 0 mm | - | 573 W/m² | - |
| 1777468517 | 14.44° C | 28% | 1030.2 hPa | 0 mm | - | 583 W/m² | - |
| 1777468217 | 13.89° C | 29% | 1030.2 hPa | 0 mm | - | 589 W/m² | - |
| 1777467917 | 14.44° C | 28% | 1030.2 hPa | 0 mm | - | 598 W/m² | - |
| 1777467617 | 14.44° C | 28% | 1030.3 hPa | 0 mm | - | 607 W/m² | - |
| 1777467317 | 14.44° C | 28% | 1030.4 hPa | 0 mm | - | 615 W/m² | - |
| 1777467017 | 14.44° C | 28% | 1030.2 hPa | 0 mm | - | 621 W/m² | - |
| 1777466717 | 15° C | 28% | 1030.4 hPa | 0 mm | - | 630 W/m² | - |
| 1777466417 | 15° C | 27% | 1030.3 hPa | 0 mm | - | 633 W/m² | - |
| 1777466117 | 13.89° C | 29% | 1030.2 hPa | 0 mm | - | 639 W/m² | - |
| 1777465817 | 14.44° C | 27% | 1030.5 hPa | 0 mm | - | 644 W/m² | - |
| 1777465517 | 14.44° C | 29% | 1030.4 hPa | 0 mm | - | 649 W/m² | - |
| 1777465217 | 15° C | 27% | 1030.4 hPa | 0 mm | - | 653 W/m² | - |
| 1777464917 | 15° C | 27% | 1030.5 hPa | 0 mm | - | 658 W/m² | - |
| 1777464617 | 15° C | 27% | 1030.4 hPa | 0 mm | - | 657 W/m² | - |
| 1777464317 | 15° C | 26% | 1030.5 hPa | 0 mm | - | 663 W/m² | - |
| 1777464017 | 15° C | 26% | 1030.5 hPa | 0 mm | - | 668 W/m² | - |
| 1777463717 | 14.44° C | 27% | 1030.4 hPa | 0 mm | - | 666 W/m² | - |
| 1777463417 | 13.89° C | 28% | 1030.3 hPa | 0 mm | - | 666 W/m² | - |
| 1777463117 | 13.89° C | 29% | 1030.3 hPa | 0 mm | - | 669 W/m² | - |
| 1777462816 | 14.44° C | 27% | 1030.4 hPa | 0 mm | - | 669 W/m² | - |
* Rain latest hour (hover to see other rain measurements)
** Current wind speed in m/s (hover to see current wind gust speed)